createdAt,value
2022-10-11T00:00:57.866Z,88.93
2022-10-11T00:03:26.882Z,88.75
2022-10-11T00:05:56.829Z,88.84
2022-10-11T00:08:27.328Z,88.87
2022-10-11T00:11:04.452Z,88.78
2022-10-11T00:13:34.021Z,88.71
2022-10-11T00:16:10.825Z,88.81
2022-10-11T00:18:40.344Z,88.73
2022-10-11T00:21:13.941Z,88.76
2022-10-11T00:23:44.508Z,88.87
2022-10-11T00:26:15.198Z,88.81
2022-10-11T00:28:44.229Z,88.77
2022-10-11T00:31:16.609Z,88.78
2022-10-11T00:33:46.052Z,88.75
2022-10-11T00:36:17.050Z,88.87
2022-10-11T00:38:46.972Z,88.90
2022-10-11T00:41:18.258Z,88.75
2022-10-11T00:44:19.239Z,88.93
2022-10-11T00:47:04.531Z,88.91
2022-10-11T00:49:53.483Z,88.82
2022-10-11T00:52:41.882Z,88.85
2022-10-11T00:55:28.520Z,88.71
2022-10-11T00:58:26.507Z,88.52
2022-10-11T01:01:19.317Z,88.72
2022-10-11T01:04:00.502Z,88.71
2022-10-11T01:06:50.641Z,88.78
2022-10-11T01:09:31.381Z,88.79
2022-10-11T01:12:20.020Z,88.74
2022-10-11T01:15:18.706Z,88.74
2022-10-11T01:18:34.320Z,88.60
2022-10-11T01:21:32.166Z,88.65
2022-10-11T01:24:40.873Z,88.78
2022-10-11T01:27:49.799Z,88.96
2022-10-11T01:30:34.613Z,89.04
2022-10-11T01:33:31.409Z,88.72
2022-10-11T01:36:32.316Z,88.81
2022-10-11T01:39:32.816Z,88.72
2022-10-11T01:42:21.837Z,88.84
2022-10-11T01:45:02.635Z,88.95
2022-10-11T01:48:09.523Z,89.09
2022-10-11T01:51:03.627Z,89.07
2022-10-11T01:55:07.986Z,88.83
2022-10-11T01:58:27.767Z,88.76
2022-10-11T02:01:22.158Z,88.91
2022-10-11T02:04:13.539Z,88.78
2022-10-11T02:07:18.642Z,88.76
2022-10-11T02:10:08.253Z,88.94
2022-10-11T02:13:04.789Z,88.80
2022-10-11T02:15:47.875Z,88.78
2022-10-11T02:18:49.502Z,88.75
2022-10-11T02:21:35.108Z,89.06
2022-10-11T02:24:23.811Z,88.59
2022-10-11T02:27:07.598Z,89.31
2022-10-11T02:30:10.325Z,89.07
2022-10-11T02:32:55.747Z,88.59
2022-10-11T02:36:10.211Z,88.82
2022-10-11T02:38:59.406Z,88.96
2022-10-11T02:41:43.949Z,89.17
2022-10-11T02:44:33.616Z,89.19
2022-10-11T02:47:26.061Z,89.12
2022-10-11T02:50:15.069Z,88.55
2022-10-11T02:53:03.866Z,88.41
2022-10-11T02:55:55.191Z,88.75
2022-10-11T02:58:36.810Z,88.68
2022-10-11T03:01:28.819Z,88.71
2022-10-11T03:04:22.265Z,88.92
2022-10-11T03:07:23.949Z,89.13
2022-10-11T03:10:10.133Z,88.98
2022-10-11T03:12:52.232Z,88.85
2022-10-11T03:16:03.647Z,88.71
2022-10-11T03:18:44.917Z,88.73
2022-10-11T03:21:27.378Z,88.62
2022-10-11T03:24:07.576Z,88.67
2022-10-11T03:26:48.219Z,88.68
2022-10-11T03:29:44.208Z,88.29
2022-10-11T03:32:36.990Z,88.54
2022-10-11T03:35:18.546Z,88.34
2022-10-11T03:38:04.405Z,88.54
2022-10-11T03:40:52.883Z,88.33
2022-10-11T03:43:54.566Z,88.30
2022-10-11T03:46:42.440Z,88.73
2022-10-11T03:49:21.810Z,88.25
2022-10-11T03:52:21.568Z,88.67
2022-10-11T03:55:09.279Z,88.80
2022-10-11T03:58:18.102Z,88.25
2022-10-11T04:01:01.498Z,88.56
2022-10-11T04:03:44.919Z,88.09
2022-10-11T04:06:24.759Z,88.53
2022-10-11T04:09:05.148Z,88.45
2022-10-11T04:11:45.758Z,88.12
2022-10-11T04:14:27.541Z,88.44
2022-10-11T04:17:11.956Z,88.35
2022-10-11T04:20:00.624Z,88.35
2022-10-11T04:22:52.688Z,88.29
2022-10-11T04:25:52.506Z,88.23
2022-10-11T04:28:35.562Z,87.69
2022-10-11T04:31:16.964Z,88.33
2022-10-11T04:33:58.777Z,88.38
2022-10-11T04:36:43.581Z,88.18
2022-10-11T04:39:27.930Z,88.16
2022-10-11T04:42:13.667Z,88.16
2022-10-11T04:44:53.724Z,88.26
2022-10-11T04:47:35.711Z,88.30
2022-10-11T04:50:16.234Z,88.20
2022-10-11T04:53:02.012Z,88.04
2022-10-11T04:55:42.716Z,87.85
2022-10-11T04:58:35.903Z,87.81
2022-10-11T05:01:16.900Z,87.66
2022-10-11T05:03:59.242Z,87.58
2022-10-11T05:06:53.304Z,87.39
2022-10-11T05:09:34.662Z,87.40
2022-10-11T05:12:16.420Z,87.31
2022-10-11T05:14:57.863Z,87.17
2022-10-11T05:17:39.601Z,87.49
2022-10-11T05:20:20.593Z,87.52
2022-10-11T05:23:00.650Z,87.39
2022-10-11T05:25:49.807Z,86.80
2022-10-11T05:28:34.135Z,86.77
2022-10-11T05:31:16.097Z,86.61
2022-10-11T05:33:57.530Z,86.26
2022-10-11T05:36:38.589Z,86.30
2022-10-11T05:39:24.262Z,86.49
2022-10-11T05:42:10.013Z,86.42
2022-10-11T05:45:00.295Z,86.98
2022-10-11T05:47:40.565Z,86.66
2022-10-11T05:50:24.174Z,86.38
2022-10-11T05:53:07.333Z,86.22
2022-10-11T05:55:54.319Z,86.24
2022-10-11T05:58:36.024Z,86.22
2022-10-11T06:01:21.190Z,85.99
2022-10-11T06:04:01.680Z,86.00
2022-10-11T06:06:47.165Z,85.71
2022-10-11T06:09:31.198Z,85.58
2022-10-11T06:12:12.159Z,85.05
2022-10-11T06:15:12.916Z,84.97
2022-10-11T06:17:54.789Z,84.74
2022-10-11T06:20:34.187Z,84.51
2022-10-11T06:23:41.209Z,84.47
2022-10-11T06:26:21.677Z,84.46
2022-10-11T06:29:19.643Z,84.36
2022-10-11T06:32:18.445Z,84.09
2022-10-11T06:34:58.758Z,84.09
2022-10-11T06:37:57.208Z,84.28
2022-10-11T06:40:40.140Z,84.35
2022-10-11T06:43:20.858Z,84.53
2022-10-11T06:46:15.608Z,84.28
2022-10-11T06:48:56.639Z,84.22
2022-10-11T06:51:35.961Z,84.21
2022-10-11T06:54:16.072Z,84.05
2022-10-11T06:57:30.194Z,83.94
2022-10-11T07:00:13.160Z,84.08
2022-10-11T07:02:53.683Z,83.92
2022-10-11T07:05:34.844Z,83.86
2022-10-11T07:08:14.787Z,83.84
2022-10-11T07:10:54.624Z,83.96
2022-10-11T07:13:34.556Z,83.75
2022-10-11T07:17:10.302Z,83.64
2022-10-11T07:20:12.966Z,83.56
2022-10-11T07:23:07.374Z,83.27
2022-10-11T07:25:47.503Z,83.31
2022-10-11T07:28:30.697Z,83.26
2022-10-11T07:31:15.483Z,82.85
2022-10-11T07:33:55.891Z,82.94
2022-10-11T07:36:35.281Z,83.13
2022-10-11T07:39:42.216Z,83.15
2022-10-11T07:42:39.268Z,83.21
2022-10-11T07:45:19.671Z,83.28
2022-10-11T07:48:18.108Z,83.50
2022-10-11T07:51:06.780Z,83.43
2022-10-11T07:54:07.434Z,83.40
2022-10-11T07:57:03.427Z,83.36
2022-10-11T07:59:49.322Z,83.37
2022-10-11T08:02:30.472Z,83.53
2022-10-11T08:05:34.054Z,83.16
2022-10-11T08:08:13.941Z,83.12
2022-10-11T08:10:53.692Z,83.16
2022-10-11T08:13:59.249Z,82.92
2022-10-11T08:16:40.394Z,82.72
2022-10-11T08:19:42.247Z,82.40
2022-10-11T08:22:49.903Z,82.29
2022-10-11T08:25:32.571Z,82.25
2022-10-11T08:28:27.785Z,82.12
2022-10-11T08:31:17.962Z,81.90
2022-10-11T08:33:57.861Z,81.66
2022-10-11T08:36:37.895Z,81.66
2022-10-11T08:39:18.278Z,81.51
2022-10-11T08:42:04.173Z,81.51
2022-10-11T08:45:36.214Z,81.43
2022-10-11T08:48:21.167Z,81.20
2022-10-11T08:51:06.679Z,81.09
2022-10-11T08:53:54.680Z,80.94
2022-10-11T08:56:40.048Z,80.86
2022-10-11T08:59:40.225Z,80.62
2022-10-11T09:03:03.074Z,80.64
2022-10-11T09:06:03.652Z,80.47
2022-10-11T09:09:19.427Z,80.33
2022-10-11T09:12:19.533Z,80.46
2022-10-11T09:15:16.923Z,80.24
2022-10-11T09:18:44.218Z,80.10
2022-10-11T09:21:39.376Z,79.68
2022-10-11T09:24:40.623Z,79.46
2022-10-11T09:27:57.231Z,79.19
2022-10-11T09:30:33.138Z,79.02
2022-10-11T09:43:38.790Z,78.46
2022-10-11T09:46:23.845Z,78.36
2022-10-11T09:48:54.677Z,77.99
2022-10-11T09:51:26.670Z,77.47
2022-10-11T09:53:59.319Z,77.01
2022-10-11T09:56:30.860Z,76.68
2022-10-11T09:59:29.577Z,76.71
2022-10-11T10:02:22.766Z,76.70
2022-10-11T10:05:15.415Z,76.25
2022-10-11T10:08:16.045Z,75.60
2022-10-11T10:10:48.882Z,75.33
2022-10-11T10:13:23.753Z,75.21
2022-10-11T10:15:59.256Z,74.60
2022-10-11T10:18:36.006Z,74.32
2022-10-11T10:21:09.877Z,74.21
2022-10-11T10:23:40.225Z,73.93
2022-10-11T10:26:18.806Z,73.39
2022-10-11T10:29:05.245Z,72.82
2022-10-11T10:32:08.817Z,72.55
2022-10-11T10:34:34.532Z,72.29
2022-10-11T10:37:10.313Z,71.39
2022-10-11T10:39:46.953Z,71.74
2022-10-11T10:42:18.705Z,71.64
2022-10-11T10:44:53.709Z,70.85
2022-10-11T10:47:50.684Z,70.72
2022-10-11T10:50:28.498Z,70.56
2022-10-11T10:53:12.980Z,70.61
2022-10-11T10:55:46.375Z,70.47
2022-10-11T10:58:34.021Z,70.00
2022-10-11T11:01:15.845Z,69.20
2022-10-11T11:03:54.838Z,68.01
2022-10-11T11:06:37.444Z,67.79
2022-10-11T11:09:27.507Z,67.87
2022-10-11T11:12:15.888Z,66.92
2022-10-11T11:14:57.691Z,66.69
2022-10-11T11:17:42.823Z,66.67
2022-10-11T11:20:40.350Z,66.84
2022-10-11T11:23:21.874Z,66.40
2022-10-11T11:26:02.735Z,66.29
2022-10-11T11:28:54.812Z,65.99
2022-10-11T11:31:56.153Z,64.30
2022-10-11T11:34:30.197Z,65.23
2022-10-11T11:37:07.568Z,64.44
2022-10-11T11:39:46.315Z,64.68
2022-10-11T11:42:24.495Z,64.77
2022-10-11T11:44:56.458Z,64.30
2022-10-11T11:47:35.273Z,64.39
2022-10-11T11:50:22.532Z,64.56
2022-10-11T11:52:59.086Z,64.29
2022-10-11T11:55:42.871Z,64.10
2022-10-11T11:58:35.732Z,63.77
2022-10-11T12:01:22.564Z,63.65
2022-10-11T12:03:56.960Z,63.66
2022-10-11T12:06:32.293Z,63.26
2022-10-11T12:09:07.738Z,62.92
2022-10-11T12:11:52.261Z,62.17
2022-10-11T12:14:39.379Z,62.38
2022-10-11T12:17:23.758Z,62.30
2022-10-11T12:20:15.804Z,62.39
2022-10-11T12:23:00.291Z,61.45
2022-10-11T12:25:44.529Z,61.18
2022-10-11T12:28:49.698Z,60.44
2022-10-11T12:31:24.179Z,59.39
2022-10-11T12:34:21.292Z,60.05
2022-10-11T12:36:52.161Z,59.65
2022-10-11T12:39:53.720Z,58.68
2022-10-11T12:42:30.037Z,59.38
2022-10-11T12:45:32.578Z,58.97
2022-10-11T12:48:28.681Z,59.69
2022-10-11T12:51:25.671Z,59.96
2022-10-11T12:54:36.982Z,60.38
2022-10-11T12:57:48.683Z,60.13
2022-10-11T13:00:29.365Z,59.93
2022-10-11T13:03:06.482Z,60.02
2022-10-11T13:05:49.702Z,59.68
2022-10-11T13:08:29.270Z,59.97
2022-10-11T13:11:05.752Z,59.30
2022-10-11T13:13:42.337Z,60.18
2022-10-11T13:16:22.314Z,59.74
2022-10-11T13:18:57.370Z,59.93
2022-10-11T13:21:38.684Z,59.96
2022-10-11T13:24:17.534Z,59.77
2022-10-11T13:26:49.142Z,59.60
2022-10-11T13:29:30.214Z,59.96
2022-10-11T13:31:59.837Z,59.86
2022-10-11T13:34:35.032Z,59.90
2022-10-11T13:37:05.616Z,59.38
2022-10-11T13:39:39.263Z,59.95
2022-10-11T13:42:19.165Z,60.24
2022-10-11T13:44:50.143Z,60.13
2022-10-11T13:47:24.121Z,59.97
2022-10-11T13:50:11.026Z,59.97
2022-10-11T13:52:56.109Z,59.97
2022-10-11T13:55:31.861Z,60.21
2022-10-11T13:58:03.544Z,60.06
2022-10-11T14:00:39.716Z,60.37
2022-10-11T14:03:20.302Z,60.50
2022-10-11T14:05:57.383Z,60.34
2022-10-11T14:08:37.023Z,60.44
2022-10-11T14:11:08.827Z,61.10
2022-10-11T14:13:43.691Z,62.00
2022-10-11T14:16:31.899Z,63.39
2022-10-11T14:19:12.216Z,64.98
2022-10-11T14:21:52.876Z,66.60
2022-10-11T14:24:24.274Z,66.48
2022-10-11T14:26:56.089Z,67.33
2022-10-11T14:29:29.556Z,68.32
2022-10-11T14:32:06.280Z,69.50
2022-10-11T14:34:37.831Z,69.82
2022-10-11T14:37:07.769Z,71.55
2022-10-11T14:39:36.935Z,71.85
2022-10-11T14:42:06.197Z,72.24
2022-10-11T14:44:35.036Z,72.65
2022-10-11T14:47:06.821Z,73.03
2022-10-11T14:49:39.716Z,73.31
2022-10-11T14:52:12.023Z,73.69
2022-10-11T14:54:41.970Z,74.31
2022-10-11T14:57:13.986Z,75.39
2022-10-11T14:59:44.224Z,75.94
2022-10-11T15:02:14.744Z,76.57
2022-10-11T15:04:43.403Z,77.07
2022-10-11T15:07:14.530Z,77.39
2022-10-11T15:09:43.257Z,77.69
2022-10-11T15:12:12.164Z,77.88
2022-10-11T15:14:40.950Z,78.08
2022-10-11T15:17:13.836Z,78.31
2022-10-11T15:19:42.784Z,78.47
2022-10-11T15:22:11.432Z,78.28
2022-10-11T15:24:40.518Z,78.38
2022-10-11T15:27:10.513Z,78.22
2022-10-11T15:29:39.550Z,78.26
2022-10-11T15:32:09.238Z,78.22
2022-10-11T15:34:39.663Z,78.49
2022-10-11T15:37:08.963Z,78.54
2022-10-11T15:39:38.027Z,78.61
2022-10-11T15:42:08.206Z,78.71
2022-10-11T15:44:38.195Z,78.91
2022-10-11T15:47:07.616Z,78.79
2022-10-11T15:49:38.781Z,78.97
2022-10-11T15:52:07.903Z,78.97
2022-10-11T15:54:36.636Z,79.10
2022-10-11T15:57:08.094Z,79.06
2022-10-11T15:59:38.670Z,79.33
2022-10-11T16:02:08.226Z,79.53
2022-10-11T16:04:39.461Z,79.48
2022-10-11T16:07:08.847Z,79.67
2022-10-11T16:09:38.145Z,79.69
2022-10-11T16:12:08.077Z,79.92
2022-10-11T16:14:37.329Z,79.74
2022-10-11T16:17:06.307Z,80.06
2022-10-11T16:19:35.480Z,80.40
2022-10-11T16:22:08.150Z,80.71
2022-10-11T16:24:37.385Z,80.80
2022-10-11T16:27:06.602Z,81.11
2022-10-11T16:29:35.657Z,81.22
2022-10-11T16:32:04.999Z,81.96
2022-10-11T16:34:35.486Z,82.05
2022-10-11T16:37:09.788Z,82.40
2022-10-11T16:39:41.150Z,82.56
2022-10-11T16:42:14.269Z,83.33
2022-10-11T16:44:43.902Z,83.72
2022-10-11T16:47:13.789Z,83.72
2022-10-11T16:49:43.188Z,83.87
2022-10-11T16:52:15.736Z,83.87
2022-10-11T16:54:46.386Z,83.97
2022-10-11T16:57:19.143Z,83.92
2022-10-11T16:59:49.080Z,84.21
2022-10-11T17:02:21.984Z,84.26
2022-10-11T17:04:54.179Z,84.30
2022-10-11T17:07:25.471Z,84.40
2022-10-11T17:09:54.897Z,84.47
2022-10-11T17:12:26.193Z,84.78
2022-10-11T17:14:55.831Z,84.84
2022-10-11T17:17:28.327Z,84.67
2022-10-11T17:20:02.411Z,84.87
2022-10-11T17:22:38.007Z,85.03
2022-10-11T17:25:08.824Z,85.23
2022-10-11T17:27:38.854Z,85.06
2022-10-11T17:30:10.539Z,85.26
2022-10-11T17:32:40.100Z,85.30
2022-10-11T17:35:10.222Z,85.39
2022-10-11T17:37:41.026Z,85.35
2022-10-11T17:40:12.309Z,85.55
2022-10-11T17:42:41.810Z,85.60
2022-10-11T17:45:13.906Z,85.63
2022-10-11T17:47:43.624Z,85.51
2022-10-11T17:50:13.369Z,85.63
2022-10-11T17:52:44.283Z,85.58
2022-10-11T17:55:14.843Z,85.46
2022-10-11T17:57:47.096Z,85.30
2022-10-11T18:00:18.478Z,85.35
2022-10-11T18:02:50.480Z,85.34
2022-10-11T18:05:23.003Z,85.44
2022-10-11T18:08:04.386Z,85.55
2022-10-11T18:10:35.611Z,85.60
2022-10-11T18:13:07.471Z,85.36
2022-10-11T18:15:41.237Z,85.49
2022-10-11T18:18:12.048Z,85.41
2022-10-11T18:20:49.109Z,85.43
2022-10-11T18:23:34.117Z,85.51
2022-10-11T18:26:14.736Z,85.54
2022-10-11T18:28:45.774Z,85.53
2022-10-11T18:34:08.630Z,85.40
2022-10-11T18:36:42.406Z,85.50
2022-10-11T18:39:17.881Z,85.40
2022-10-11T18:42:05.673Z,85.28
2022-10-11T18:44:35.500Z,85.25
2022-10-11T18:47:05.754Z,85.30
2022-10-11T18:49:38.653Z,85.24
2022-10-11T18:52:10.261Z,85.24
2022-10-11T18:54:43.713Z,85.35
2022-10-11T18:57:13.211Z,85.28
2022-10-11T18:59:42.658Z,85.24
2022-10-11T19:02:13.542Z,85.06
2022-10-11T19:04:42.931Z,85.12
2022-10-11T19:07:12.534Z,85.16
2022-10-11T19:09:44.791Z,85.06
2022-10-11T19:12:15.335Z,85.09
2022-10-11T19:14:47.147Z,85.06
2022-10-11T19:17:17.212Z,85.20
2022-10-11T19:19:46.829Z,85.12
2022-10-11T19:22:22.707Z,85.11
2022-10-11T19:24:57.222Z,85.20
2022-10-11T19:27:27.073Z,85.18
2022-10-11T19:29:56.512Z,85.35
2022-10-11T19:32:26.308Z,85.19
2022-10-11T19:34:55.565Z,85.15
2022-10-11T19:37:26.646Z,85.48
2022-10-11T19:39:57.795Z,85.66
2022-10-11T19:42:27.391Z,85.95
2022-10-11T19:44:58.276Z,85.93
2022-10-11T19:47:27.629Z,85.78
2022-10-11T19:50:01.055Z,85.74
2022-10-11T19:52:32.220Z,85.66
2022-10-11T19:55:03.144Z,85.53
2022-10-11T19:57:35.480Z,85.46
2022-10-11T20:00:05.223Z,85.35
2022-10-11T20:02:35.447Z,85.37
2022-10-11T20:05:08.475Z,85.53
2022-10-11T20:07:38.012Z,85.49
2022-10-11T20:10:14.115Z,85.65
2022-10-11T20:12:46.070Z,85.81
2022-10-11T20:15:17.329Z,85.93
2022-10-11T20:17:49.573Z,85.96
2022-10-11T20:21:12.228Z,85.81
2022-10-11T20:23:43.944Z,85.66
2022-10-11T20:26:17.808Z,85.84
2022-10-11T20:28:47.116Z,85.74
2022-10-11T20:31:19.696Z,85.73
2022-10-11T20:33:50.774Z,85.70
2022-10-11T20:36:23.614Z,85.69
2022-10-11T20:38:53.460Z,85.79
2022-10-11T20:41:27.810Z,85.78
2022-10-11T20:44:02.215Z,85.87
2022-10-11T20:46:33.762Z,85.87
2022-10-11T20:49:06.350Z,85.78
2022-10-11T20:51:38.293Z,85.77
2022-10-11T20:54:09.468Z,86.32
2022-10-11T20:56:40.556Z,86.59
2022-10-11T20:59:09.770Z,86.82
2022-10-11T21:01:41.429Z,86.96
2022-10-11T21:04:17.915Z,87.01
2022-10-11T21:06:47.544Z,87.50
2022-10-11T21:09:17.411Z,87.52
2022-10-11T21:11:47.767Z,87.35
2022-10-11T21:14:16.816Z,87.78
2022-10-11T21:16:45.628Z,87.54
2022-10-11T21:19:16.573Z,87.68
2022-10-11T21:21:52.547Z,87.78
2022-10-11T21:24:22.808Z,88.03
2022-10-11T21:27:00.279Z,87.86
2022-10-11T21:29:30.723Z,87.96
2022-10-11T21:31:59.443Z,88.02
2022-10-11T21:34:28.061Z,88.00
2022-10-11T21:36:56.884Z,88.31
2022-10-11T21:39:25.606Z,88.45
2022-10-11T21:41:55.613Z,88.22
2022-10-11T21:44:24.395Z,88.45
2022-10-11T21:47:08.450Z,88.50
2022-10-11T21:49:37.364Z,88.78
2022-10-11T21:52:06.661Z,88.71
2022-10-11T21:54:35.305Z,88.86
2022-10-11T21:57:05.721Z,88.70
2022-10-11T21:59:34.415Z,88.71
2022-10-11T22:02:05.370Z,88.74
2022-10-11T22:04:35.481Z,88.89
2022-10-11T22:07:07.511Z,88.76
2022-10-11T22:09:36.200Z,88.65
2022-10-11T22:12:07.498Z,88.52
2022-10-11T22:14:36.465Z,88.59
2022-10-11T22:17:05.675Z,88.69
2022-10-11T22:19:34.331Z,88.88
2022-10-11T22:22:03.034Z,89.49
2022-10-11T22:27:29.011Z,89.46
2022-10-11T22:29:57.738Z,89.43
2022-10-11T22:32:26.456Z,90.02
2022-10-11T22:34:55.348Z,89.68
2022-10-11T22:37:24.989Z,89.67
2022-10-11T22:39:55.278Z,89.46
2022-10-11T22:42:27.698Z,89.61
2022-10-11T22:44:56.756Z,89.65
2022-10-11T22:47:25.745Z,89.60
2022-10-11T22:49:54.583Z,89.48
2022-10-11T22:52:23.287Z,89.36
2022-10-11T22:54:52.041Z,89.47
2022-10-11T22:57:20.646Z,89.47
2022-10-11T22:59:52.001Z,89.32
2022-10-11T23:02:24.250Z,89.26
2022-10-11T23:04:54.274Z,89.00
2022-10-11T23:07:23.042Z,88.65
2022-10-11T23:09:51.760Z,88.59
2022-10-11T23:12:20.560Z,88.40
2022-10-11T23:14:49.282Z,88.08
2022-10-11T23:17:19.519Z,88.00
2022-10-11T23:19:48.250Z,87.78
2022-10-11T23:22:17.278Z,87.60
2022-10-11T23:24:46.152Z,87.69
2022-10-11T23:27:14.974Z,87.57
2022-10-11T23:29:43.742Z,87.52
2022-10-11T23:32:13.038Z,87.29
2022-10-11T23:34:43.137Z,87.27
2022-10-11T23:37:12.116Z,87.28
2022-10-11T23:39:40.809Z,86.98
2022-10-11T23:42:11.495Z,86.91
2022-10-11T23:44:44.632Z,86.77
2022-10-11T23:47:13.970Z,86.83
2022-10-11T23:49:45.861Z,86.80
2022-10-11T23:52:14.890Z,86.77
2022-10-11T23:54:45.330Z,86.80
2022-10-11T23:57:14.583Z,86.74
2022-10-11T23:59:50.426Z,86.51
